Time;durP1;ratioP1;P1;durP2;ratioP2;P2;SDS_P1;SDS_P2;PMS_P1;PMS_P2;Temp;Humidity;BMP_temperature;BMP_pressure;BME280_temperature;BME280_humidity;BME280_pressure;Samples;Min_cycle;Max_cycle;Signal;HPM_P1;HPM_P2
2021/08/05 00:00:42;;;;;;;11.32;5.63;;;;;;;22.40;54.16;96902.38;5006294;28;20058;-68
2021/08/05 00:03:09;;;;;;;10.45;5.97;;;;;;;22.28;54.27;96906.00;5007483;28;20081;-70
2021/08/05 00:05:36;;;;;;;7.95;5.60;;;;;;;22.30;54.49;96885.78;5006221;28;20057;-70
2021/08/05 00:08:04;;;;;;;9.57;5.07;;;;;;;22.31;54.13;96887.34;5006313;28;20057;-70
2021/08/05 00:10:31;;;;;;;10.00;5.63;;;;;;;22.31;54.42;96879.69;5007630;28;20057;-69
2021/08/05 00:12:57;;;;;;;10.27;5.20;;;;;;;22.28;54.73;96894.72;5006176;28;20050;-71
2021/08/05 00:15:24;;;;;;;11.77;5.20;;;;;;;22.16;54.57;96887.00;5006683;28;20060;-69
2021/08/05 00:17:51;;;;;;;10.80;5.82;;;;;;;21.15;54.35;96707.63;5005710;28;20066;-69
2021/08/05 00:20:18;;;;;;;10.95;5.60;;;;;;;22.31;54.41;96887.34;5005980;28;20056;-69
2021/08/05 00:22:44;;;;;;;10.93;5.53;;;;;;;21.93;54.58;96821.66;5007640;28;20618;-70
2021/08/05 00:25:11;;;;;;;9.27;5.75;;;;;;;22.17;54.43;96876.50;5007730;28;20088;-70
2021/08/05 00:27:38;;;;;;;12.63;5.45;;;;;;;19.54;54.79;96469.03;5005823;28;20058;-70
2021/08/05 00:30:08;;;;;;;9.07;5.28;;;;;;;21.40;54.66;96778.13;5007159;28;20057;-70
2021/08/05 00:32:36;;;;;;;8.38;5.57;;;;;;;22.08;54.89;96873.59;5007286;28;20058;-70
2021/08/05 00:35:04;;;;;;;10.63;5.93;;;;;;;22.00;55.06;96881.44;5005590;28;20054;-71
2021/08/05 00:37:30;;;;;;;12.02;5.80;;;;;;;21.49;55.21;96803.63;5005666;28;20155;-68
2021/08/05 00:39:58;;;;;;;9.07;5.53;;;;;;;22.01;55.21;96890.72;5005764;28;20061;-69
2021/08/05 00:42:25;;;;;;;9.23;5.55;;;;;;;21.97;55.24;96890.81;5005651;28;20058;-71
2021/08/05 00:44:52;;;;;;;8.68;5.38;;;;;;;21.87;55.95;96886.31;5005647;28;20061;-71
2021/08/05 00:47:18;;;;;;;8.48;5.60;;;;;;;21.31;56.43;96792.06;5005286;28;20054;-70
2021/08/05 00:49:45;;;;;;;10.00;5.40;;;;;;;20.67;56.71;96696.53;5006584;28;20493;-71
2021/08/05 00:52:12;;;;;;;9.70;5.68;;;;;;;21.77;57.26;96876.13;5004729;28;20596;-69
2021/08/05 00:54:39;;;;;;;12.20;5.65;;;;;;;21.81;57.46;96873.19;5006843;28;20567;-70
2021/08/05 00:57:06;;;;;;;13.48;5.70;;;;;;;21.42;56.98;96815.09;5005118;28;20532;-70
2021/08/05 00:59:32;;;;;;;7.93;5.53;;;;;;;21.63;57.23;96842.66;5005000;28;20512;-70
2021/08/05 01:02:11;;;;;;;12.75;6.07;;;;;;;21.89;56.97;96869.69;5003954;28;20554;-71
2021/08/05 01:04:39;;;;;;;8.32;5.85;;;;;;;21.73;57.76;96852.06;5005363;28;20058;-69
2021/08/05 01:07:16;;;;;;;9.52;5.72;;;;;;;21.77;58.04;96855.56;5006397;28;20229;-69
2021/08/05 01:10:07;;;;;;;14.98;5.90;;;;;;;20.01;58.58;96603.50;5004971;28;20092;-70
2021/08/05 01:12:51;;;;;;;11.23;5.80;;;;;;;21.55;58.91;96858.22;5006033;28;20056;-70
2021/08/05 01:15:26;;;;;;;8.18;5.72;;;;;;;21.45;58.63;96830.34;5004877;28;20152;-70
2021/08/05 01:17:56;;;;;;;9.60;5.30;;;;;;;21.28;58.93;96821.16;5004474;28;20088;-69
2021/08/05 01:20:25;;;;;;;8.63;6.80;;;;;;;21.28;58.69;96798.59;5005547;28;20524;-69
2021/08/05 01:23:20;;;;;;;10.75;5.70;;;;;;;20.58;58.62;96693.59;5005517;28;20049;-68
2021/08/05 01:25:49;;;;;;;11.38;7.10;;;;;;;21.48;58.89;96843.53;5004016;28;20531;-70
2021/08/05 01:28:16;;;;;;;8.02;5.93;;;;;;;21.49;59.20;96843.09;5004394;28;20050;-70
2021/08/05 01:30:44;;;;;;;10.32;6.45;;;;;;;21.46;59.68;96827.06;5004554;28;20053;-70
2021/08/05 01:33:13;;;;;;;10.10;5.97;;;;;;;21.16;59.49;96774.00;5005315;28;20651;-70
2021/08/05 01:35:42;;;;;;;12.75;6.65;;;;;;;20.97;59.70;96738.34;5004305;28;20054;-70
2021/08/05 01:38:11;;;;;;;9.45;5.90;;;;;;;21.10;60.08;96766.56;5004151;28;20077;-70
2021/08/05 01:40:40;;;;;;;11.20;5.88;;;;;;;21.43;60.39;96819.53;5004391;28;20062;-70
2021/08/05 01:43:07;;;;;;;11.05;6.53;;;;;;;21.17;61.09;96789.66;5003932;28;20131;-70
2021/08/05 01:45:36;;;;;;;12.77;7.47;;;;;;;21.50;61.17;96827.75;5005730;28;20116;-71
2021/08/05 01:48:05;;;;;;;8.55;7.53;;;;;;;21.50;61.61;96833.38;5004352;28;20065;-70
2021/08/05 01:50:33;;;;;;;9.48;6.43;;;;;;;21.20;62.42;96780.31;5003900;28;20580;-71
2021/08/05 01:53:00;;;;;;;11.23;7.88;;;;;;;21.52;62.69;96833.75;5004440;28;20057;-69
2021/08/05 01:55:27;;;;;;;14.02;7.95;;;;;;;21.49;63.12;96820.53;5005444;28;20053;-70
2021/08/05 01:57:57;;;;;;;12.50;8.18;;;;;;;21.27;63.11;96780.13;5005359;28;20050;-71
2021/08/05 02:00:24;;;;;;;10.30;7.38;;;;;;;21.45;63.01;96802.16;5003980;28;20119;-71
2021/08/05 02:02:54;;;;;;;10.48;7.03;;;;;;;21.28;62.85;96764.00;5003681;28;20144;-71
2021/08/05 02:05:31;;;;;;;10.55;7.20;;;;;;;21.63;63.01;96825.75;5004012;28;20061;-71
2021/08/05 02:08:05;;;;;;;11.93;6.90;;;;;;;21.19;62.66;96767.47;5003932;28;20058;-69
2021/08/05 02:10:35;;;;;;;13.10;7.80;;;;;;;21.35;62.62;96797.59;5003969;28;20550;-70
2021/08/05 02:13:11;;;;;;;17.20;7.18;;;;;;;21.38;62.40;96819.25;5004825;28;20053;-69
2021/08/05 02:15:43;;;;;;;11.18;7.07;;;;;;;21.26;62.45;96822.84;5003495;28;20064;-70
2021/08/05 02:18:11;;;;;;;13.55;6.55;;;;;;;20.94;61.94;96796.31;5003707;28;20096;-68
2021/08/05 02:20:41;;;;;;;11.18;6.75;;;;;;;21.07;61.96;96827.38;5005531;28;20073;-69
2021/08/05 02:23:10;;;;;;;11.80;6.93;;;;;;;20.89;62.86;96824.22;5004105;28;20050;-70
2021/08/05 02:25:41;;;;;;;12.02;7.03;;;;;;;20.88;63.25;96817.03;5005102;28;20061;-70
2021/08/05 02:28:09;;;;;;;12.38;7.45;;;;;;;20.87;65.77;96813.41;5005299;28;20073;-69
2021/08/05 02:30:37;;;;;;;11.85;8.18;;;;;;;20.86;66.77;96827.94;5003618;28;20485;-70
2021/08/05 02:33:06;;;;;;;14.32;8.25;;;;;;;20.84;67.25;96799.41;5003337;28;20111;-68
2021/08/05 02:35:36;;;;;;;15.38;8.27;;;;;;;20.77;67.19;96783.50;5004638;28;20065;-71
2021/08/05 02:38:04;;;;;;;14.55;8.07;;;;;;;21.01;67.51;96823.50;5003488;28;20058;-71
2021/08/05 02:40:35;;;;;;;13.90;8.13;;;;;;;20.98;67.50;96826.44;5004307;28;20061;-70
2021/08/05 02:43:05;;;;;;;12.40;8.63;;;;;;;21.05;66.94;96834.69;5003573;28;20056;-71
2021/08/05 02:45:34;;;;;;;13.60;8.27;;;;;;;21.10;66.76;96834.97;5003233;28;20155;-72
2021/08/05 02:48:03;;;;;;;15.48;8.65;;;;;;;21.12;66.78;96820.44;5003532;28;20135;-69
2021/08/05 02:50:32;;;;;;;11.90;8.60;;;;;;;21.16;66.57;96836.00;5002866;28;20061;-71
2021/08/05 02:53:01;;;;;;;13.50;8.57;;;;;;;20.74;66.46;96763.88;5002809;28;20539;-70
2021/08/05 02:55:28;;;;;;;12.10;8.00;;;;;;;21.13;66.44;96825.63;5002462;28;20921;-71
2021/08/05 02:57:56;;;;;;;14.02;9.45;;;;;;;21.30;65.59;96824.31;5003047;28;20058;-71
2021/08/05 03:00:23;;;;;;;11.10;7.63;;;;;;;21.33;64.17;96828.25;5003813;28;20061;-71
2021/08/05 03:02:50;;;;;;;16.70;7.93;;;;;;;21.21;63.17;96807.28;5002887;28;20517;-72
2021/08/05 03:05:18;;;;;;;16.23;8.07;;;;;;;21.27;63.37;96825.22;5003758;28;20064;-71
2021/08/05 03:07:45;;;;;;;12.15;7.63;;;;;;;21.41;63.90;96833.25;5002803;28;20139;-71
2021/08/05 03:10:15;;;;;;;16.88;7.82;;;;;;;20.44;68.53;96854.34;5002477;28;20061;-69
2021/08/05 03:12:43;;;;;;;13.43;7.40;;;;;;;19.74;69.44;96752.78;5003980;28;20293;-68
2021/08/05 03:15:11;;;;;;;13.88;7.55;;;;;;;20.59;68.43;96833.88;5003922;28;20436;-69
2021/08/05 03:17:38;;;;;;;25.25;9.57;;;;;;;20.63;67.79;96843.00;5002105;28;20061;-70
2021/08/05 03:20:07;;;;;;;25.52;9.82;;;;;;;20.79;67.72;96851.44;5002390;28;20149;-69
2021/08/05 03:22:34;;;;;;;55.97;16.42;;;;;;;20.78;67.42;96843.44;5002558;28;20057;-69
2021/08/05 03:25:01;;;;;;;26.42;10.18;;;;;;;20.03;70.88;96842.88;5001667;28;20053;-68
2021/08/05 03:27:27;;;;;;;15.68;8.55;;;;;;;19.54;72.99;96828.69;5003515;28;20052;-70
2021/08/05 03:29:54;;;;;;;14.85;8.40;;;;;;;19.40;73.52;96795.28;5001944;28;20532;-69
2021/08/05 03:32:21;;;;;;;15.50;8.70;;;;;;;19.93;72.14;96849.53;5002202;28;20678;-70
2021/08/05 03:34:47;;;;;;;13.93;7.68;;;;;;;20.20;71.17;96841.69;5003984;28;20061;-69
2021/08/05 03:37:14;;;;;;;14.32;8.40;;;;;;;20.35;70.69;96842.91;5001976;28;20065;-70
2021/08/05 03:39:41;;;;;;;21.85;9.48;;;;;;;20.47;71.70;96845.03;5004071;28;20452;-71
2021/08/05 03:42:08;;;;;;;20.40;9.93;;;;;;;20.03;71.50;96752.88;5002326;28;20077;-72
2021/08/05 03:44:34;;;;;;;14.05;9.45;;;;;;;20.69;71.55;96841.22;5002211;28;20334;-70
2021/08/05 03:47:01;;;;;;;18.52;9.88;;;;;;;20.71;71.61;96826.72;5003255;28;20509;-69
2021/08/05 03:49:29;;;;;;;15.13;9.25;;;;;;;20.95;71.92;96847.78;5002285;28;20141;-69
2021/08/05 03:51:55;;;;;;;16.20;10.35;;;;;;;20.96;72.52;96846.59;5003186;28;20049;-69
2021/08/05 03:54:22;;;;;;;20.00;10.38;;;;;;;20.93;72.48;96844.63;5002486;28;20064;-70
2021/08/05 03:56:49;;;;;;;15.68;10.05;;;;;;;20.76;71.30;96807.28;5002338;28;20490;-71
2021/08/05 03:59:16;;;;;;;13.10;8.85;;;;;;;21.00;70.94;96838.84;4994482;28;20050;-70
2021/08/05 04:01:42;;;;;;;13.45;8.80;;;;;;;21.03;71.37;96843.59;5003556;28;20104;-71
2021/08/05 04:04:10;;;;;;;14.00;8.95;;;;;;;20.76;70.00;96783.94;5002081;28;20050;-71
2021/08/05 04:06:36;;;;;;;14.30;8.45;;;;;;;21.31;68.74;96854.06;5003118;28;20132;-70
2021/08/05 04:09:03;;;;;;;12.25;8.70;;;;;;;21.46;68.27;96860.91;5002038;28;20611;-70
2021/08/05 04:11:30;;;;;;;16.23;8.98;;;;;;;21.25;68.00;96822.03;5001792;28;20076;-71
2021/08/05 04:13:59;;;;;;;15.63;8.57;;;;;;;21.67;68.03;96848.97;5002461;28;20058;-68
2021/08/05 04:16:26;;;;;;;14.65;9.15;;;;;;;21.59;67.43;96794.03;5003320;28;20089;-69
2021/08/05 04:18:52;;;;;;;13.93;8.68;;;;;;;21.73;66.69;96807.75;5002017;28;20127;-71
2021/08/05 04:21:19;;;;;;;14.60;8.65;;;;;;;21.59;65.72;96740.47;5001821;28;20073;-71
2021/08/05 04:23:46;;;;;;;14.43;9.18;;;;;;;22.37;65.00;96829.88;5001667;28;20050;-69
2021/08/05 04:26:13;;;;;;;19.98;10.50;;;;;;;22.52;64.60;96832.28;5001597;28;20057;-70
2021/08/05 04:28:39;;;;;;;21.92;8.55;;;;;;;22.29;65.04;96788.22;5003076;28;20057;-71
2021/08/05 04:31:06;;;;;;;18.63;8.88;;;;;;;22.56;65.01;96821.66;5003110;28;20058;-69
2021/08/05 04:33:34;;;;;;;18.50;8.65;;;;;;;22.61;65.31;96836.00;5002242;28;20050;-70
2021/08/05 04:36:01;;;;;;;25.40;12.80;;;;;;;22.65;64.23;96787.88;5003999;28;20065;-69
2021/08/05 04:38:28;;;;;;;17.38;9.07;;;;;;;22.75;63.34;96758.44;5006713;28;20057;-68
2021/08/05 04:40:55;;;;;;;22.55;10.52;;;;;;;23.25;62.34;96812.75;5004909;28;20066;-68
2021/08/05 04:43:22;;;;;;;20.85;8.82;;;;;;;22.79;61.75;96728.84;5004854;28;20422;-69
2021/08/05 04:45:48;;;;;;;19.73;9.10;;;;;;;23.40;61.66;96804.53;5005053;28;20076;-69
2021/08/05 04:48:15;;;;;;;18.35;8.50;;;;;;;23.57;60.77;96803.06;5005627;28;20068;-69
2021/08/05 04:50:45;;;;;;;28.65;9.52;;;;;;;23.55;61.01;96789.41;5005513;28;20050;-67
2021/08/05 04:53:16;;;;;;;27.63;10.23;;;;;;;23.56;60.70;96762.72;5004620;28;20057;-69
2021/08/05 04:55:44;;;;;;;21.80;10.18;;;;;;;23.87;60.81;96810.81;5005018;28;20144;-69
2021/08/05 04:58:11;;;;;;;18.58;9.13;;;;;;;23.74;61.49;96801.63;5004719;28;20175;-68
2021/08/05 05:00:40;;;;;;;17.63;9.10;;;;;;;23.30;61.71;96763.34;5005300;28;20061;-68
2021/08/05 05:03:08;;;;;;;19.33;9.63;;;;;;;23.27;61.76;96755.75;5005017;28;20057;-69
2021/08/05 05:05:36;;;;;;;23.58;9.60;;;;;;;23.72;60.58;96798.47;5004901;28;20125;-69
2021/08/05 05:08:16;;;;;;;16.95;9.38;;;;;;;23.89;60.21;96792.13;5004836;28;20094;-68
2021/08/05 05:10:43;;;;;;;14.85;8.85;;;;;;;24.11;59.30;96792.09;5004721;28;20058;-68
2021/08/05 05:13:10;;;;;;;14.63;8.00;;;;;;;24.35;58.97;96790.28;5004593;28;20054;-69
2021/08/05 05:15:38;;;;;;;21.27;9.35;;;;;;;24.08;58.18;96713.78;5004385;28;20595;-70
2021/08/05 05:18:06;;;;;;;14.68;8.95;;;;;;;24.75;57.64;96785.41;5004806;28;20065;-68
2021/08/05 05:20:33;;;;;;;15.38;9.23;;;;;;;24.88;57.44;96783.19;5004441;28;20057;-68
2021/08/05 05:23:01;;;;;;;18.65;8.23;;;;;;;24.61;57.19;96714.34;5006119;28;20133;-70
2021/08/05 05:25:29;;;;;;;16.08;8.63;;;;;;;25.23;55.84;96786.50;5003936;28;20513;-68
2021/08/05 05:27:55;;;;;;;23.27;9.50;;;;;;;25.25;55.81;96762.09;5004648;28;20050;-69
2021/08/05 05:30:23;;;;;;;20.75;8.82;;;;;;;25.45;55.90;96770.13;5004200;28;20053;-69
2021/08/05 05:32:50;;;;;;;11.32;8.35;;;;;;;25.60;55.80;96776.72;5004305;28;20081;-68
2021/08/05 05:35:18;;;;;;;21.13;9.35;;;;;;;25.24;55.61;96709.47;5004189;28;20049;-70
2021/08/05 05:37:48;;;;;;;22.45;9.73;;;;;;;25.14;55.63;96693.75;5004457;28;20053;-69
2021/08/05 05:40:15;;;;;;;20.85;10.20;;;;;;;25.91;54.52;96773.66;5004126;28;20128;-69
2021/08/05 05:42:43;;;;;;;20.05;9.45;;;;;;;26.02;54.25;96751.25;5005769;28;20162;-69
2021/08/05 05:45:11;;;;;;;19.50;9.05;;;;;;;26.18;53.78;96767.88;5003615;28;20060;-69
2021/08/05 05:47:38;;;;;;;21.73;8.65;;;;;;;25.77;53.61;96709.03;5004662;28;20080;-69
2021/08/05 05:50:08;;;;;;;21.92;10.52;;;;;;;26.27;53.80;96784.91;5005017;28;20533;-69
2021/08/05 05:52:35;;;;;;;21.27;9.70;;;;;;;26.46;53.32;96777.88;5003911;28;20484;-68
2021/08/05 05:55:03;;;;;;;24.23;10.15;;;;;;;25.18;51.59;96544.09;5003944;28;20508;-69
2021/08/05 05:57:29;;;;;;;17.70;9.10;;;;;;;26.83;50.67;96770.69;5003937;28;20058;-69
2021/08/05 05:59:56;;;;;;;18.27;9.60;;;;;;;26.15;49.54;96635.38;4994603;28;20058;-68
2021/08/05 06:02:23;;;;;;;14.30;8.98;;;;;;;27.04;48.67;96766.75;4989686;28;20056;-67
2021/08/05 06:04:49;;;;;;;13.45;8.05;;;;;;;27.19;48.45;96759.03;4995873;28;20065;-61
2021/08/05 06:07:16;;;;;;;12.20;8.65;;;;;;;27.13;48.33;96761.00;4985122;28;20131;-64
2021/08/05 06:09:43;;;;;;;16.38;10.10;;;;;;;26.98;48.98;96713.88;5001200;28;20058;-68
2021/08/05 06:12:09;;;;;;;19.73;9.55;;;;;;;27.13;49.06;96704.09;4996696;28;20057;-61
2021/08/05 06:14:37;;;;;;;17.95;8.88;;;;;;;27.54;47.56;96757.16;4999306;28;20056;-61
2021/08/05 06:17:03;;;;;;;14.20;9.20;;;;;;;26.82;46.94;96595.72;4986300;28;20070;-67
2021/08/05 06:19:30;;;;;;;17.60;9.52;;;;;;;28.14;46.42;96760.31;5003990;28;20072;-64
2021/08/05 06:21:58;;;;;;;13.30;8.73;;;;;;;28.20;44.72;96754.69;4988972;28;20054;-63
2021/08/05 06:24:26;;;;;;;14.77;9.15;;;;;;;28.16;44.61;96722.78;4983887;28;20050;-60
2021/08/05 06:26:53;;;;;;;16.48;9.40;;;;;;;28.41;44.62;96749.81;4999425;28;20050;-62
2021/08/05 06:29:20;;;;;;;16.85;9.43;;;;;;;28.49;44.39;96733.91;5003013;28;20065;-64
2021/08/05 06:31:47;;;;;;;20.50;8.95;;;;;;;28.51;44.77;96685.75;5004921;28;20054;-61
2021/08/05 06:34:13;;;;;;;12.25;9.43;;;;;;;28.93;44.30;96745.91;5003004;28;20061;-59
2021/08/05 06:36:40;;;;;;;13.85;10.40;;;;;;;28.32;45.50;96712.91;4991263;28;20069;-61
2021/08/05 06:39:07;;;;;;;11.95;8.82;;;;;;;28.51;45.39;96735.00;5002840;28;20076;-60
2021/08/05 06:41:33;;;;;;;12.82;9.15;;;;;;;28.66;45.46;96720.69;5004236;28;20050;-60
2021/08/05 06:44:00;;;;;;;16.80;9.27;;;;;;;28.48;45.20;96652.56;5004764;28;20574;-59
2021/08/05 06:46:28;;;;;;;16.20;10.13;;;;;;;29.34;43.60;96718.94;5002655;28;20053;-60
2021/08/05 06:48:55;;;;;;;11.75;9.40;;;;;;;29.50;43.73;96727.69;5004063;28;20181;-62
2021/08/05 06:51:21;;;;;;;15.18;8.52;;;;;;;29.55;42.30;96683.34;5004236;28;20161;-60
2021/08/05 06:53:48;;;;;;;11.35;8.73;;;;;;;29.62;42.29;96690.69;5000111;28;20046;-60
2021/08/05 06:56:15;;;;;;;18.13;9.05;;;;;;;29.97;42.52;96723.47;4982651;28;20054;-64
2021/08/05 06:58:41;;;;;;;14.57;8.32;;;;;;;30.16;41.88;96726.75;4984404;28;20062;-60
2021/08/05 07:01:08;;;;;;;13.00;9.20;;;;;;;30.37;41.90;96723.28;4984067;28;20058;-61
2021/08/05 07:03:35;;;;;;;12.60;8.63;;;;;;;29.83;42.39;96641.56;4982617;28;20069;-61
2021/08/05 07:06:04;;;;;;;13.43;8.45;;;;;;;30.38;41.07;96710.56;4984189;28;20058;-63
2021/08/05 07:08:31;;;;;;;23.88;9.48;;;;;;;30.59;40.81;96703.41;4984894;28;20091;-63
2021/08/05 07:10:57;;;;;;;14.40;9.95;;;;;;;30.40;43.73;96725.13;4992554;28;20158;-63
2021/08/05 07:13:24;;;;;;;13.40;9.45;;;;;;;30.28;43.67;96683.47;4994199;28;20057;-65
2021/08/05 07:15:50;;;;;;;15.50;9.90;;;;;;;29.33;45.76;96666.00;5000672;28;20054;-63
2021/08/05 07:18:17;;;;;;;15.55;9.38;;;;;;;29.38;46.42;96702.41;4993590;28;20056;-66
2021/08/05 07:20:44;;;;;;;14.15;8.43;;;;;;;29.72;45.23;96703.53;4992596;28;20054;-67
2021/08/05 07:23:11;;;;;;;17.10;10.35;;;;;;;29.73;46.20;96691.59;4984268;28;20053;-59
2021/08/05 07:25:37;;;;;;;14.52;10.07;;;;;;;29.62;45.93;96640.09;4984556;28;20064;-62
2021/08/05 07:28:05;;;;;;;13.25;9.65;;;;;;;29.85;46.78;96684.69;4987305;28;20152;-60
2021/08/05 07:30:32;;;;;;;17.27;11.30;;;;;;;29.65;46.25;96647.66;4988960;28;20076;-63
2021/08/05 07:32:58;;;;;;;12.95;9.65;;;;;;;29.64;47.22;96674.63;4992584;28;20615;-60
2021/08/05 07:35:25;;;;;;;14.35;9.23;;;;;;;29.89;45.92;96673.81;4985181;28;20050;-63
2021/08/05 07:37:52;;;;;;;12.13;9.55;;;;;;;29.80;45.71;96654.00;4990255;28;20436;-69
2021/08/05 07:40:19;;;;;;;12.82;9.32;;;;;;;29.21;45.67;96544.50;4996557;28;20229;-64
2021/08/05 07:42:46;;;;;;;10.32;8.45;;;;;;;29.87;45.30;96664.97;4989790;28;20060;-60
2021/08/05 07:45:15;;;;;;;17.45;8.75;;;;;;;29.83;44.94;96633.00;4994184;28;20054;-60
2021/08/05 07:47:42;;;;;;;15.52;8.30;;;;;;;30.16;44.69;96618.16;4983684;28;21036;-67
2021/08/05 07:50:10;;;;;;;11.43;9.27;;;;;;;30.38;45.63;96644.81;4982466;28;20046;-66
2021/08/05 07:52:37;;;;;;;15.38;9.00;;;;;;;30.77;45.57;96645.81;4984243;28;20054;-67
2021/08/05 07:55:06;;;;;;;18.10;9.20;;;;;;;31.15;45.75;96641.50;4997701;28;20098;-68
2021/08/05 07:57:33;;;;;;;9.98;8.77;;;;;;;31.27;44.51;96650.91;5003496;28;20511;-67
2021/08/05 08:00:00;;;;;;;12.75;9.15;;;;;;;31.45;45.04;96641.84;5003783;28;20477;-71
2021/08/05 08:02:28;;;;;;;15.40;9.45;;;;;;;31.62;44.26;96628.31;5002067;28;20054;-68
2021/08/05 08:04:58;;;;;;;16.75;9.77;;;;;;;32.11;42.99;96631.19;5002754;28;20140;-65
2021/08/05 08:07:25;;;;;;;13.05;9.43;;;;;;;31.56;44.58;96627.53;5002717;28;20085;-64
2021/08/05 08:09:52;;;;;;;13.95;9.02;;;;;;;31.51;45.26;96631.16;5003745;28;20537;-64
2021/08/05 08:12:18;;;;;;;12.00;9.70;;;;;;;31.39;45.87;96621.81;5005314;28;20057;-64
2021/08/05 08:14:45;;;;;;;10.05;9.10;;;;;;;31.61;45.19;96612.44;5007886;28;20056;-64
2021/08/05 08:17:12;;;;;;;10.48;8.75;;;;;;;31.36;44.85;96593.41;5006674;28;20060;-64
2021/08/05 08:19:39;;;;;;;12.55;9.30;;;;;;;31.46;45.24;96609.06;5005516;28;20065;-64
2021/08/05 08:22:06;;;;;;;14.13;9.85;;;;;;;31.76;44.86;96605.13;5005431;28;20539;-64
2021/08/05 08:24:33;;;;;;;13.65;10.80;;;;;;;31.04;46.90;96600.63;5006571;28;20516;-64
2021/08/05 08:27:00;;;;;;;13.90;11.10;;;;;;;31.66;45.90;96594.47;5005602;28;20046;-65
2021/08/05 08:29:26;;;;;;;14.93;10.30;;;;;;;31.98;44.85;96604.38;5005485;28;20057;-65
2021/08/05 08:31:53;;;;;;;13.38;9.93;;;;;;;31.15;46.08;96600.66;5006736;28;20048;-66
2021/08/05 08:34:20;;;;;;;11.65;9.75;;;;;;;30.92;46.87;96600.59;5005278;28;20535;-67
2021/08/05 08:36:47;;;;;;;17.08;11.68;;;;;;;31.14;45.73;96541.84;5006302;28;20062;-65
2021/08/05 08:39:14;;;;;;;11.90;9.88;;;;;;;31.88;44.40;96594.47;5006737;28;20070;-68
2021/08/05 08:41:42;;;;;;;12.95;10.10;;;;;;;31.72;44.61;96606.69;5003932;28;20077;-65
2021/08/05 08:44:09;;;;;;;18.73;10.10;;;;;;;32.18;44.35;96590.50;5002813;28;20049;-65
2021/08/05 08:46:36;;;;;;;24.63;12.80;;;;;;;32.70;43.22;96587.75;4991687;28;20054;-63
2021/08/05 08:49:04;;;;;;;15.15;9.75;;;;;;;32.48;42.55;96590.72;4986948;28;20052;-64
2021/08/05 08:51:32;;;;;;;12.90;9.98;;;;;;;31.79;44.13;96583.28;4986912;28;20077;-60
2021/08/05 08:54:03;;;;;;;11.80;9.80;;;;;;;31.77;43.56;96578.06;4992826;28;20060;-68
2021/08/05 08:56:30;;;;;;;11.80;9.50;;;;;;;31.73;43.91;96588.19;5000220;28;20046;-61
2021/08/05 08:58:59;;;;;;;11.13;9.18;;;;;;;31.15;44.74;96500.47;5001727;28;20060;-63
2021/08/05 09:01:26;;;;;;;11.10;9.45;;;;;;;32.33;43.58;96584.47;5003194;28;20065;-65
2021/08/05 09:03:53;;;;;;;14.43;11.10;;;;;;;32.47;42.43;96571.91;4994685;28;20100;-61
2021/08/05 09:06:20;;;;;;;15.38;10.38;;;;;;;32.46;42.88;96576.09;4987263;28;20509;-59
2021/08/05 09:08:49;;;;;;;17.48;11.20;;;;;;;32.76;42.52;96576.22;5003959;28;20050;-59
2021/08/05 09:11:16;;;;;;;12.02;9.85;;;;;;;32.60;42.39;96539.78;4990808;28;20552;-59
2021/08/05 09:13:43;;;;;;;16.73;11.50;;;;;;;32.45;42.10;96499.97;4985239;28;20053;-67
2021/08/05 09:16:28;;;;;;;11.93;10.27;;;;;;;33.23;41.29;96557.69;5004824;28;20141;-65
2021/08/05 09:19:38;;;;;;;15.38;10.10;;;;;;;33.09;41.51;96568.22;4988877;28;20054;-69
2021/08/05 09:22:05;;;;;;;13.25;9.85;;;;;;;33.25;41.32;96538.63;5001602;28;20052;-66
2021/08/05 09:24:32;;;;;;;16.55;9.63;;;;;;;33.10;40.81;96498.00;5004000;28;20137;-65
2021/08/05 09:27:06;;;;;;;14.25;10.60;;;;;;;33.69;40.24;96552.63;4988253;28;20051;-67
2021/08/05 09:29:44;;;;;;;12.65;10.20;;;;;;;33.78;39.84;96546.53;4984796;28;20441;-67
2021/08/05 09:32:10;;;;;;;17.48;11.02;;;;;;;32.77;40.53;96428.59;5004626;28;20054;-66
2021/08/05 09:34:40;;;;;;;12.20;10.85;;;;;;;33.11;41.35;96545.53;5002490;28;20058;-62
2021/08/05 09:37:09;;;;;;;14.73;10.32;;;;;;;33.48;40.99;96545.75;4995315;28;20081;-66
2021/08/05 09:39:42;;;;;;;20.48;11.75;;;;;;;33.69;40.40;96543.22;5002869;28;20325;-63
2021/08/05 09:42:11;;;;;;;18.95;10.77;;;;;;;33.77;40.18;96538.44;4985836;28;20062;-66
2021/08/05 09:44:38;;;;;;;16.83;10.85;;;;;;;33.32;40.35;96538.03;4981539;28;20061;-67
2021/08/05 09:47:19;;;;;;;15.88;12.07;;;;;;;31.38;40.79;96227.22;4986010;28;20089;-67
2021/08/05 09:49:46;;;;;;;13.40;10.30;;;;;;;33.33;40.90;96531.00;4987036;28;20126;-68
2021/08/05 09:52:28;;;;;;;14.80;10.63;;;;;;;33.06;40.91;96480.31;4989347;28;20078;-67
2021/08/05 09:54:56;;;;;;;15.75;10.43;;;;;;;32.99;41.34;96526.78;4996796;28;20550;-65
2021/08/05 09:57:29;;;;;;;13.63;10.38;;;;;;;33.05;41.10;96518.94;5005909;28;20132;-66
2021/08/05 10:00:07;;;;;;;15.90;10.73;;;;;;;33.37;41.09;96476.91;5004406;28;20069;-67
2021/08/05 10:02:45;;;;;;;15.23;10.98;;;;;;;33.80;40.61;96514.38;5005344;28;20081;-66
2021/08/05 10:05:17;;;;;;;14.82;9.93;;;;;;;33.72;40.42;96505.56;5003995;28;20090;-65
2021/08/05 10:07:51;;;;;;;12.63;10.00;;;;;;;33.18;40.30;96447.31;5005496;28;20061;-66
2021/08/05 10:10:21;;;;;;;12.85;10.07;;;;;;;34.07;39.88;96487.47;5003887;28;20093;-65
2021/08/05 10:12:52;;;;;;;16.83;10.57;;;;;;;34.13;39.88;96455.78;5004640;28;20136;-66
2021/08/05 10:15:20;;;;;;;14.40;11.15;;;;;;;34.83;38.77;96487.78;5005110;28;20061;-66
2021/08/05 10:17:51;;;;;;;12.35;9.60;;;;;;;34.78;38.92;96484.97;5003171;28;20073;-61
2021/08/05 10:20:18;;;;;;;14.60;10.38;;;;;;;35.05;37.91;96460.75;5004986;28;20077;-63
2021/08/05 10:22:48;;;;;;;15.77;10.48;;;;;;;34.22;39.63;96467.69;5003659;28;20060;-60
2021/08/05 10:25:20;;;;;;;11.10;9.70;;;;;;;33.97;39.25;96419.38;5004984;28;20154;-61
2021/08/05 10:27:48;;;;;;;16.42;11.02;;;;;;;34.15;38.80;96401.34;5004918;28;20060;-63
2021/08/05 10:30:17;;;;;;;16.33;10.52;;;;;;;34.93;38.24;96459.41;5004881;28;20056;-65
2021/08/05 10:32:48;;;;;;;18.83;12.10;;;;;;;35.38;37.96;96442.94;5004513;28;20115;-60
2021/08/05 10:35:16;;;;;;;16.65;11.30;;;;;;;35.23;38.00;96436.13;4999447;28;20424;-62
2021/08/05 10:37:43;;;;;;;18.70;12.73;;;;;;;35.24;38.25;96426.91;4994279;28;20057;-64
2021/08/05 10:40:12;;;;;;;20.63;11.75;;;;;;;35.94;37.00;96443.50;4992544;28;20493;-65
2021/08/05 10:42:43;;;;;;;11.38;10.27;;;;;;;36.09;36.26;96429.28;4987128;28;20054;-62
2021/08/05 10:45:11;;;;;;;21.58;11.95;;;;;;;35.98;36.71;96383.34;4983211;28;20496;-65
2021/08/05 10:47:39;;;;;;;15.43;12.07;;;;;;;36.23;36.63;96430.81;4984779;28;20054;-61
2021/08/05 10:50:17;;;;;;;17.77;12.60;;;;;;;36.01;36.81;96419.72;4984744;28;20449;-62
2021/08/05 10:52:51;;;;;;;19.02;12.23;;;;;;;35.62;37.49;96408.19;4983593;28;20564;-61
2021/08/05 10:55:18;;;;;;;19.05;12.43;;;;;;;35.75;37.83;96413.97;5000021;28;20574;-65
2021/08/05 10:58:06;;;;;;;15.48;12.30;;;;;;;35.78;37.41;96395.53;5003997;28;20444;-63
2021/08/05 11:00:58;;;;;;;18.65;12.27;;;;;;;35.54;38.23;96407.28;5003000;28;20052;-64
2021/08/05 11:03:47;;;;;;;13.85;11.05;;;;;;;34.52;39.13;96349.59;5004068;28;20796;-61
2021/08/05 11:06:23;;;;;;;20.77;12.25;;;;;;;35.29;38.60;96403.00;5002979;28;20128;-63
2021/08/05 11:08:50;;;;;;;18.73;12.88;;;;;;;35.47;38.74;96396.44;4984419;28;20057;-62
2021/08/05 11:11:20;;;;;;;17.92;12.18;;;;;;;35.30;38.38;96390.16;4996401;28;20081;-64
2021/08/05 11:13:59;;;;;;;18.13;12.25;;;;;;;35.60;38.21;96387.78;4994017;28;20049;-61
2021/08/05 11:16:51;;;;;;;18.17;12.40;;;;;;;35.09;39.17;96380.59;5001842;28;20125;-62
2021/08/05 11:19:28;;;;;;;18.83;13.10;;;;;;;35.67;37.94;96381.34;4991772;28;20062;-62
2021/08/05 11:21:56;;;;;;;16.95;12.25;;;;;;;35.25;37.75;96318.25;4993776;28;20054;-63
2021/08/05 11:24:45;;;;;;;16.63;12.05;;;;;;;36.00;36.72;96383.56;4987627;28;20128;-69
2021/08/05 11:27:14;;;;;;;17.17;11.43;;;;;;;35.69;37.16;96372.16;4297064;28;20004533;-65
2021/08/05 11:29:41;;;;;;;19.08;13.45;;;;;;;35.55;37.04;96290.69;4988460;28;20488;-62
2021/08/05 11:32:25;;;;;;;19.92;12.52;;;;;;;35.97;36.64;96367.41;4991619;28;20054;-64